Terminal Aerodrome Forecast
Issued by NWS Memphis, TN

Home | Current Version | Previous Version | Text Only | Print | Product List | Glossary On
Versions: 1 2 3 4 5 6 7 8 9 10 11 12 13 14 15 16 17 18 19 20 21 22 23 24
731
FTUS44 KMEG 111130
TAFMEM
TAF
KMEM 111130Z 1112/1212 16010G15KT P6SM OVC050
     FM111700 18012G20KT P6SM VCSH OVC040
     FM120300 21012G20KT 5SM -SHRA VCTS OVC020CB
      TEMPO 1205/1209 2SM SHRA BR OVC007
     FM120900 33010KT 5SM -RA BR OVC012=

USA.gov is the U.S. government's official web portal to all federal, state and local government web resources and services.